WetterOnline ( https://www.wetteronline.de )

Wetter aktuell Höxter

Aktuelles Wetter: Lügde-Paenbruch (260m)

6-stündlich | Neueste Meldungen
Ortszeit Temperatur Wetter
Sa, 19.06. 2:00 20.7° C leicht bewölkt
Fr, 18.06. 20:00 24.2° C bewölkt
Fr, 18.06. 14:00 31.0° C leicht bewölkt
Fr, 18.06. 8:00 23.2° C wolkenlos
Fr, 18.06. 2:00 21.9° C wolkenlos
Do, 17.06. 20:00 29.5° C wolkenlos
Do, 17.06. 14:00 30.0° C wolkenlos
Do, 17.06. 8:00 22.5° C wolkenlos
Ortszeit Temperatur Wetter
Sa, 19.06. 5:30 20.2° C leicht bewölkt
Sa, 19.06. 5:20 20.2° C leicht bewölkt
Sa, 19.06. 5:10 20.0° C leicht bewölkt
Sa, 19.06. 5:00 20.5° C leicht bewölkt
Sa, 19.06. 4:50 20.5° C leicht bewölkt
Sa, 19.06. 4:40 21.0° C leicht bewölkt
Sa, 19.06. 4:30 20.9° C wolkig
Sa, 19.06. 4:00 20.2° C wolkig
Sa, 19.06. 3:30 20.4° C bewölkt
Sa, 19.06. 3:00 20.3° C wolkig
Sa, 19.06. 2:30 20.8° C wolkig
Ortszeit Relative Feuchte Sichtweite
Sa, 19.06. 2:00 86% 17 km
Fr, 18.06. 20:00 77% 30 km
Fr, 18.06. 14:00 45% 45 km
Fr, 18.06. 8:00 64% 40 km
Fr, 18.06. 2:00 67% 55 km
Do, 17.06. 20:00 41% 55 km
Do, 17.06. 14:00 39% >70 km
Do, 17.06. 8:00 70% 30 km
Ortszeit Relative Feuchte Sichtweite
Sa, 19.06. 5:30 85% 25 km
Sa, 19.06. 5:20 85% -
Sa, 19.06. 5:10 88% -
Sa, 19.06. 5:00 85% 23 km
Sa, 19.06. 4:50 85% -
Sa, 19.06. 4:40 82% -
Sa, 19.06. 4:30 84% 29 km
Sa, 19.06. 4:00 90% 18 km
Sa, 19.06. 3:30 91% 20 km
Sa, 19.06. 3:00 90% 13 km
Sa, 19.06. 2:30 86% 20 km
Ortszeit Niederschlagsmenge Niederschlagsart
Sa, 19.06. 2:00 0.0 l/m2 in 6 Std. -
Fr, 18.06. 20:00 0.5 l/m2 in 12 Std. Regen
Fr, 18.06. 14:00 0.0 l/m2 in 6 Std. -
Fr, 18.06. 8:00 0.0 l/m2 in 12 Std. -
Fr, 18.06. 2:00 0.0 l/m2 in 6 Std. -
Do, 17.06. 20:00 0.0 l/m2 in 12 Std. -
Do, 17.06. 14:00 0.0 l/m2 in 6 Std. -
Do, 17.06. 8:00 0.0 l/m2 in 12 Std. -
Ortszeit Niederschlagsmenge Niederschlagsart
Sa, 19.06. 5:30 0.0 l/m2 in 1 Std. -
Sa, 19.06. 5:20 keine Meldung -
Sa, 19.06. 5:10 keine Meldung -
Sa, 19.06. 5:00 0.1 l/m2 in 1 Std. Regen
Sa, 19.06. 4:50 keine Meldung -
Sa, 19.06. 4:40 keine Meldung -
Sa, 19.06. 4:30 0.1 l/m2 in 1 Std. Schneeregen
Sa, 19.06. 4:00 0.1 l/m2 in 1 Std. Sprühregen
Sa, 19.06. 3:30 0.1 l/m2 in 1 Std. Schnee
Sa, 19.06. 3:00 0.0 l/m2 in 1 Std. -
Sa, 19.06. 2:30 0.0 l/m2 in 1 Std. -
Ortszeit Stärke Spitze Richtung
km/h Bft. km/h Grad Sektor
Sa, 19.06. 2:00 7 2 11 170° S
Fr, 18.06. 20:00 4 1 25 130° SO
Fr, 18.06. 14:00 4 1 18 220° SW
Fr, 18.06. 8:00 0 0 14 - -
Fr, 18.06. 2:00 6 1 19 150° SO
Do, 17.06. 20:00 11 2 32 160° S
Do, 17.06. 14:00 19 3 33 160° S
Do, 17.06. 8:00 7 2 14 150° SO
Ortszeit Stärke Spitze Richtung
km/h Bft. km/h Grad Sektor
Sa, 19.06. 5:30 7 2 11 180° S
Sa, 19.06. 5:20 7 2 - 180° S
Sa, 19.06. 5:10 7 2 - 180° S
Sa, 19.06. 5:00 7 2 13 190° S
Sa, 19.06. 4:50 - - - - -
Sa, 19.06. 4:40 7 2 - 170° S
Sa, 19.06. 4:30 9 2 13 150° SO
Sa, 19.06. 4:00 4 1 11 180° S
Sa, 19.06. 3:30 4 1 11 110° O
Sa, 19.06. 3:00 4 1 11 180° S
Sa, 19.06. 2:30 9 2 11 170° S
Ortszeit Untergrenze Bedeckung Gattung
total tief tief mittel hoch
Sa, 19.06. 2:00 9000 m 4/8 0/8 - - -
Fr, 18.06. 20:00 3600 m 7/8 7/8 - - -
Fr, 18.06. 14:00 3000 m 2/8 2/8 - - -
Fr, 18.06. 8:00 - 0/8 0/8 - - -
Fr, 18.06. 2:00 - 0/8 0/8 - - -
Do, 17.06. 20:00 - 0/8 0/8 - - -
Do, 17.06. 14:00 - 0/8 0/8 - - -
Do, 17.06. 8:00 - 0/8 0/8 - - -
Ortszeit Bedeckungsgrad in Achtel und Wolkenuntergrenze
Sa, 19.06. 5:30 2(1800m)
Sa, 19.06. 5:20 2(1800m)
Sa, 19.06. 5:10 2(1800m) 2(2400m)
Sa, 19.06. 5:00 1(1800m) 4(2400m) 4(3000m)
Sa, 19.06. 4:50 1(1800m) 2(2400m) 2(4200m)
Sa, 19.06. 4:40 1(1800m) 4(3900m) 4(5100m)
Sa, 19.06. 4:30 3(1800m) 7(3900m) 7(5100m)
Sa, 19.06. 4:00 1(1800m) 4(3300m) 7(7200m)
Sa, 19.06. 3:30 4(1800m) 8(7500m) 8(9000m)
Sa, 19.06. 3:00 2(3300m) 7(7200m) 7(8400m)
Sa, 19.06. 2:30 2(3000m) 4(9000m) 7(10500m)
Ortszeit Luftdruck NN (hPa) Tendenz (hPa in 3 Std.)
Sa, 19.06. 2:00 1013 + 0,3
Fr, 18.06. 20:00 1012 - 0,5
Fr, 18.06. 14:00 1012 - 0,4
Fr, 18.06. 8:00 1013 + 0,4
Fr, 18.06. 2:00 1013 + 0,3
Do, 17.06. 20:00 1011 - 0,1
Do, 17.06. 14:00 1012 - 0,7
Do, 17.06. 8:00 1013 + 0,5
Ortszeit Luftdruck NN (hPa) Tendenz (hPa in 3 Std.)
Sa, 19.06. 5:30 1013 + 0,4
Sa, 19.06. 5:20 1013 keine Meldung
Sa, 19.06. 5:10 1013 keine Meldung
Sa, 19.06. 5:00 1013 + 0,6
Sa, 19.06. 4:50 1013 keine Meldung
Sa, 19.06. 4:40 1013 keine Meldung
Sa, 19.06. 4:30 1013 + 0,7
Sa, 19.06. 4:00 1013 + 0,4
Sa, 19.06. 3:30 1013 + 0,3
Sa, 19.06. 3:00 1013 + 0,4
Sa, 19.06. 2:30 1013 + 0,6
Ortszeit Schneehöhe (cm)
Sa, 19.06. 2:00 -
Fr, 18.06. 20:00 -
Fr, 18.06. 14:00 -
Fr, 18.06. 8:00 -
Fr, 18.06. 2:00 -
Do, 17.06. 20:00 -
Do, 17.06. 14:00 -
Do, 17.06. 8:00 -
Ortszeit Schneehöhe (cm)
Sa, 19.06. 5:30 -
Sa, 19.06. 5:20 -
Sa, 19.06. 5:10 -
Sa, 19.06. 5:00 -
Sa, 19.06. 4:50 -
Sa, 19.06. 4:40 -
Sa, 19.06. 4:30 -
Sa, 19.06. 4:00 -
Sa, 19.06. 3:30 -
Sa, 19.06. 3:00 -
Sa, 19.06. 2:30 -
Link zu dieser Seite / Seite empfehlen

Das Wetter in ...